sensor_id;sensor_type;location;lat;lon;timestamp;pressure;altitude;pressure_sealevel;temperature;humidity
14902;BME280;7542;49.078;9.194;2023-05-08T00:00:57;98850.38;;;30.14;35.05
14902;BME280;7542;49.078;9.194;2023-05-08T00:02:00;98854.19;;;30.13;35.41
14902;BME280;7542;49.078;9.194;2023-05-08T00:03:02;98853.38;;;30.12;35.09
14902;BME280;7542;49.078;9.194;2023-05-08T00:04:04;98852.06;;;30.10;35.15
14902;BME280;7542;49.078;9.194;2023-05-08T00:05:07;98852.56;;;30.12;34.88
14902;BME280;7542;49.078;9.194;2023-05-08T00:06:09;98847.16;;;30.12;35.25
14902;BME280;7542;49.078;9.194;2023-05-08T00:07:11;98852.28;;;30.13;35.42
14902;BME280;7542;49.078;9.194;2023-05-08T00:08:13;98852.56;;;30.12;35.20
14902;BME280;7542;49.078;9.194;2023-05-08T00:09:15;98856.09;;;30.12;35.54
14902;BME280;7542;49.078;9.194;2023-05-08T00:10:17;98850.16;;;30.10;35.42
14902;BME280;7542;49.078;9.194;2023-05-08T00:11:19;98851.78;;;30.11;34.88
14902;BME280;7542;49.078;9.194;2023-05-08T00:12:21;98850.69;;;30.12;34.87
14902;BME280;7542;49.078;9.194;2023-05-08T00:13:23;98853.69;;;30.11;34.91
14902;BME280;7542;49.078;9.194;2023-05-08T00:14:25;98861.78;;;30.11;35.21
14902;BME280;7542;49.078;9.194;2023-05-08T00:15:27;98852.06;;;30.10;34.91
14902;BME280;7542;49.078;9.194;2023-05-08T00:16:30;98854.47;;;30.11;34.99
14902;BME280;7542;49.078;9.194;2023-05-08T00:17:32;98858.28;;;30.10;35.25
14902;BME280;7542;49.078;9.194;2023-05-08T00:18:34;98858.28;;;30.10;34.81
14902;BME280;7542;49.078;9.194;2023-05-08T00:19:38;98857.47;;;30.10;35.42
14902;BME280;7542;49.078;9.194;2023-05-08T00:20:40;98855.06;;;30.08;34.75
14902;BME280;7542;49.078;9.194;2023-05-08T00:21:42;98855.56;;;30.10;35.38
14902;BME280;7542;49.078;9.194;2023-05-08T00:22:44;98860.19;;;30.10;34.90
14902;BME280;7542;49.078;9.194;2023-05-08T00:23:46;98863.97;;;30.09;34.92
14902;BME280;7542;49.078;9.194;2023-05-08T00:24:48;98862.88;;;30.10;35.21
14902;BME280;7542;49.078;9.194;2023-05-08T00:25:49;98859.38;;;30.09;35.04
14902;BME280;7542;49.078;9.194;2023-05-08T00:26:51;98859.66;;;30.08;34.93
14902;BME280;7542;49.078;9.194;2023-05-08T00:27:53;98855.59;;;30.05;35.21
14902;BME280;7542;49.078;9.194;2023-05-08T00:28:55;98856.16;;;30.07;35.33
14902;BME280;7542;49.078;9.194;2023-05-08T00:29:57;98851.56;;;30.08;35.19
14902;BME280;7542;49.078;9.194;2023-05-08T00:31:00;98858.56;;;30.09;35.47
14902;BME280;7542;49.078;9.194;2023-05-08T00:32:03;98853.47;;;30.07;35.32
14902;BME280;7542;49.078;9.194;2023-05-08T00:33:05;98854.53;;;30.06;35.41
14902;BME280;7542;49.078;9.194;2023-05-08T00:34:07;98859.94;;;30.06;34.74
14902;BME280;7542;49.078;9.194;2023-05-08T00:35:08;98854.53;;;30.06;34.83
14902;BME280;7542;49.078;9.194;2023-05-08T00:36:10;98850.19;;;30.05;34.94
14902;BME280;7542;49.078;9.194;2023-05-08T00:37:13;98862.09;;;30.04;35.09
14902;BME280;7542;49.078;9.194;2023-05-08T00:38:15;98854.00;;;30.04;34.82
14902;BME280;7542;49.078;9.194;2023-05-08T00:39:17;98856.69;;;30.04;35.39
14902;BME280;7542;49.078;9.194;2023-05-08T00:40:19;98859.09;;;30.06;34.73
14902;BME280;7542;49.078;9.194;2023-05-08T00:41:21;98850.19;;;30.05;34.96
14902;BME280;7542;49.078;9.194;2023-05-08T00:42:23;98848.59;;;30.04;35.23
14902;BME280;7542;49.078;9.194;2023-05-08T00:43:25;98849.69;;;30.03;35.26
14902;BME280;7542;49.078;9.194;2023-05-08T00:44:29;98854.28;;;30.02;34.80
14902;BME280;7542;49.078;9.194;2023-05-08T00:45:38;98859.41;;;30.04;35.00
14902;BME280;7542;49.078;9.194;2023-05-08T00:46:41;98861.88;;;30.00;34.77
14902;BME280;7542;49.078;9.194;2023-05-08T00:47:44;98852.97;;;30.00;34.69
14902;BME280;7542;49.078;9.194;2023-05-08T00:48:46;98857.78;;;30.03;34.96
14902;BME280;7542;49.078;9.194;2023-05-08T00:49:48;98858.88;;;30.02;35.09
14902;BME280;7542;49.078;9.194;2023-05-08T00:50:52;98860.00;;;30.01;34.60
14902;BME280;7542;49.078;9.194;2023-05-08T00:51:55;98854.56;;;30.01;34.70
14902;BME280;7542;49.078;9.194;2023-05-08T00:53:01;98863.50;;;30.01;34.97
14902;BME280;7542;49.078;9.194;2023-05-08T00:54:04;98864.59;;;30.00;34.78
14902;BME280;7542;49.078;9.194;2023-05-08T00:55:07;98859.78;;;29.97;34.77
14902;BME280;7542;49.078;9.194;2023-05-08T00:56:13;98863.50;;;30.01;35.05
14902;BME280;7542;49.078;9.194;2023-05-08T00:57:17;98855.97;;;29.98;34.69
14902;BME280;7542;49.078;9.194;2023-05-08T00:58:21;98864.59;;;30.00;34.78
14902;BME280;7542;49.078;9.194;2023-05-08T00:59:25;98864.38;;;29.97;35.28
14902;BME280;7542;49.078;9.194;2023-05-08T01:00:28;98864.09;;;29.98;35.26
14902;BME280;7542;49.078;9.194;2023-05-08T01:01:31;98867.06;;;29.97;34.89
14902;BME280;7542;49.078;9.194;2023-05-08T01:02:34;98871.38;;;29.98;34.71
14902;BME280;7542;49.078;9.194;2023-05-08T01:03:37;98869.78;;;29.97;34.66
14902;BME280;7542;49.078;9.194;2023-05-08T01:04:41;98867.06;;;29.97;34.62
14902;BME280;7542;49.078;9.194;2023-05-08T01:05:45;98871.38;;;29.98;34.72
14902;BME280;7542;49.078;9.194;2023-05-08T01:06:47;98868.44;;;29.94;34.66
14902;BME280;7542;49.078;9.194;2023-05-08T01:07:49;98869.25;;;29.95;35.09
14902;BME280;7542;49.078;9.194;2023-05-08T01:08:51;98868.19;;;29.96;35.07
14902;BME280;7542;49.078;9.194;2023-05-08T01:09:53;98866.53;;;29.95;35.03
14902;BME280;7542;49.078;9.194;2023-05-08T01:12:33;98868.69;;;29.98;34.96
14902;BME280;7542;49.078;9.194;2023-05-08T01:15:17;98872.50;;;29.97;34.81
14902;BME280;7542;49.078;9.194;2023-05-08T01:18:12;98875.47;;;29.95;34.79
14902;BME280;7542;49.078;9.194;2023-05-08T01:21:41;98877.34;;;29.95;34.99
14902;BME280;7542;49.078;9.194;2023-05-08T01:28:55;98885.31;;;29.86;35.15
14902;BME280;7542;49.078;9.194;2023-05-08T01:32:22;98887.50;;;29.84;34.61
14902;BME280;7542;49.078;9.194;2023-05-08T01:36:24;98886.47;;;29.80;34.63
14902;BME280;7542;49.078;9.194;2023-05-08T01:37:41;98895.66;;;29.79;35.16
14902;BME280;7542;49.078;9.194;2023-05-08T01:40:20;98889.75;;;29.77;34.97
14902;BME280;7542;49.078;9.194;2023-05-08T01:41:29;98898.16;;;29.76;35.11
14902;BME280;7542;49.078;9.194;2023-05-08T01:42:42;98897.34;;;29.75;35.03
14902;BME280;7542;49.078;9.194;2023-05-08T01:43:52;98893.25;;;29.78;35.21
14902;BME280;7542;49.078;9.194;2023-05-08T01:45:00;98897.34;;;29.75;35.32
14902;BME280;7542;49.078;9.194;2023-05-08T01:46:11;98903.25;;;29.77;35.19
14902;BME280;7542;49.078;9.194;2023-05-08T01:47:17;98896.53;;;29.75;35.22
14902;BME280;7542;49.078;9.194;2023-05-08T01:48:33;98906.78;;;29.78;35.17
14902;BME280;7542;49.078;9.194;2023-05-08T01:49:57;98900.56;;;29.77;34.66
14902;BME280;7542;49.078;9.194;2023-05-08T01:51:15;98906.25;;;29.76;34.73
14902;BME280;7542;49.078;9.194;2023-05-08T01:52:29;98906.25;;;29.76;34.64
14902;BME280;7542;49.078;9.194;2023-05-08T01:53:42;98904.66;;;29.75;34.79
14902;BME280;7542;49.078;9.194;2023-05-08T01:55:19;98905.69;;;29.79;34.62
14902;BME280;7542;49.078;9.194;2023-05-08T01:56:24;98910.88;;;29.75;34.59
14902;BME280;7542;49.078;9.194;2023-05-08T01:57:32;98907.34;;;29.75;34.69
14902;BME280;7542;49.078;9.194;2023-05-08T01:58:36;98915.72;;;29.73;34.92
14902;BME280;7542;49.078;9.194;2023-05-08T01:59:41;98911.94;;;29.74;34.74
14902;BME280;7542;49.078;9.194;2023-05-08T02:00:46;98918.72;;;29.71;34.79
14902;BME280;7542;49.078;9.194;2023-05-08T02:01:54;98907.63;;;29.73;35.05
14902;BME280;7542;49.078;9.194;2023-05-08T02:02:58;98910.63;;;29.71;34.88
14902;BME280;7542;49.078;9.194;2023-05-08T02:04:03;98907.91;;;29.71;35.24
14902;BME280;7542;49.078;9.194;2023-05-08T02:05:08;98907.41;;;29.69;34.89
14902;BME280;7542;49.078;9.194;2023-05-08T02:06:14;98911.41;;;29.72;35.25
14902;BME280;7542;49.078;9.194;2023-05-08T02:07:22;98910.31;;;29.73;35.02
14902;BME280;7542;49.078;9.194;2023-05-08T02:08:28;98903.59;;;29.70;34.94
14902;BME280;7542;49.078;9.194;2023-05-08T02:09:30;98904.13;;;29.72;34.67
14902;BME280;7542;49.078;9.194;2023-05-08T02:10:34;98907.09;;;29.71;35.17
14902;BME280;7542;49.078;9.194;2023-05-08T02:11:40;98907.09;;;29.71;35.31
14902;BME280;7542;49.078;9.194;2023-05-08T02:12:45;98905.78;;;29.68;35.00
14902;BME280;7542;49.078;9.194;2023-05-08T02:13:50;98903.09;;;29.68;34.73
14902;BME280;7542;49.078;9.194;2023-05-08T02:14:54;98899.59;;;29.68;35.15
14902;BME280;7542;49.078;9.194;2023-05-08T02:15:58;98902.78;;;29.70;34.98
14902;BME280;7542;49.078;9.194;2023-05-08T02:17:03;98899.81;;;29.71;34.69
14902;BME280;7542;49.078;9.194;2023-05-08T02:18:08;98903.59;;;29.70;35.04
14902;BME280;7542;49.078;9.194;2023-05-08T02:19:11;98897.97;;;29.67;35.03
14902;BME280;7542;49.078;9.194;2023-05-08T02:20:15;98904.19;;;29.67;35.04
14902;BME280;7542;49.078;9.194;2023-05-08T02:21:21;98904.69;;;29.69;34.90
14902;BME280;7542;49.078;9.194;2023-05-08T02:22:26;98903.09;;;29.68;34.90
14902;BME280;7542;49.078;9.194;2023-05-08T02:23:30;98897.69;;;29.68;34.88
14902;BME280;7542;49.078;9.194;2023-05-08T02:24:35;98906.00;;;29.72;34.90
14902;BME280;7542;49.078;9.194;2023-05-08T02:25:39;98905.78;;;29.68;34.95
14902;BME280;7542;49.078;9.194;2023-05-08T02:26:44;98909.00;;;29.70;34.70
14902;BME280;7542;49.078;9.194;2023-05-08T02:27:49;98900.38;;;29.68;34.87
14902;BME280;7542;49.078;9.194;2023-05-08T02:28:54;98902.56;;;29.66;34.66
14902;BME280;7542;49.078;9.194;2023-05-08T02:29:58;98902.56;;;29.66;35.09
14902;BME280;7542;49.078;9.194;2023-05-08T02:31:02;98904.19;;;29.67;34.82
14902;BME280;7542;49.078;9.194;2023-05-08T02:32:07;98903.38;;;29.67;34.58
14902;BME280;7542;49.078;9.194;2023-05-08T02:33:12;98902.78;;;29.70;34.47
14902;BME280;7542;49.078;9.194;2023-05-08T02:34:15;98906.09;;;29.67;34.83
14902;BME280;7542;49.078;9.194;2023-05-08T02:35:19;98907.97;;;29.66;34.58
14902;BME280;7542;49.078;9.194;2023-05-08T02:36:22;98901.78;;;29.66;34.95
14902;BME280;7542;49.078;9.194;2023-05-08T02:37:26;98907.97;;;29.66;34.72
14902;BME280;7542;49.078;9.194;2023-05-08T02:38:30;98902.56;;;29.66;34.78
14902;BME280;7542;49.078;9.194;2023-05-08T02:39:34;98909.59;;;29.67;34.53
14902;BME280;7542;49.078;9.194;2023-05-08T02:40:45;98903.38;;;29.67;34.63
14902;BME280;7542;49.078;9.194;2023-05-08T02:41:48;98899.34;;;29.64;34.45
14902;BME280;7542;49.078;9.194;2023-05-08T02:42:50;98899.88;;;29.66;34.78
14902;BME280;7542;49.078;9.194;2023-05-08T02:43:53;98908.56;;;29.63;34.63
14902;BME280;7542;49.078;9.194;2023-05-08T02:44:56;98906.38;;;29.65;35.03
14902;BME280;7542;49.078;9.194;2023-05-08T02:46:43;98900.38;;;29.68;34.78
14902;BME280;7542;49.078;9.194;2023-05-08T02:48:11;98899.06;;;29.66;34.88
14902;BME280;7542;49.078;9.194;2023-05-08T02:49:37;98896.13;;;29.62;34.84
14902;BME280;7542;49.078;9.194;2023-05-08T02:50:52;98899.91;;;29.61;34.51
14902;BME280;7542;49.078;9.194;2023-05-08T02:52:18;98893.16;;;29.64;34.86
14902;BME280;7542;49.078;9.194;2023-05-08T02:53:39;98900.72;;;29.62;34.59
14902;BME280;7542;49.078;9.194;2023-05-08T02:54:57;98894.78;;;29.60;34.88
14902;BME280;7542;49.078;9.194;2023-05-08T02:58:28;98901.50;;;29.62;34.83
14902;BME280;7542;49.078;9.194;2023-05-08T02:59:39;98908.59;;;29.58;34.59
14902;BME280;7542;49.078;9.194;2023-05-08T03:02:08;98896.75;;;29.54;34.75
14902;BME280;7542;49.078;9.194;2023-05-08T03:03:24;98911.88;;;29.55;34.86
14902;BME280;7542;49.078;9.194;2023-05-08T03:04:42;98906.47;;;29.55;34.90
14902;BME280;7542;49.078;9.194;2023-05-08T03:05:51;98909.47;;;29.54;34.87
14902;BME280;7542;49.078;9.194;2023-05-08T03:06:57;98905.69;;;29.55;34.42
14902;BME280;7542;49.078;9.194;2023-05-08T03:08:06;98909.47;;;29.54;34.47
14902;BME280;7542;49.078;9.194;2023-05-08T03:09:18;98905.16;;;29.53;35.04
14902;BME280;7542;49.078;9.194;2023-05-08T03:10:28;98903.53;;;29.52;34.65
14902;BME280;7542;49.078;9.194;2023-05-08T03:11:41;98906.75;;;29.54;34.95
14902;BME280;7542;49.078;9.194;2023-05-08T03:12:48;98908.38;;;29.55;34.62
14902;BME280;7542;49.078;9.194;2023-05-08T03:13:57;98906.25;;;29.47;34.68
14902;BME280;7542;49.078;9.194;2023-05-08T03:15:35;98904.88;;;29.54;34.61
14902;BME280;7542;49.078;9.194;2023-05-08T03:16:42;98907.84;;;29.53;34.50
14902;BME280;7542;49.078;9.194;2023-05-08T03:17:47;98908.91;;;29.52;34.62
14902;BME280;7542;49.078;9.194;2023-05-08T03:19:00;98911.63;;;29.52;34.70
14902;BME280;7542;49.078;9.194;2023-05-08T03:20:07;98906.75;;;29.54;34.65
14902;BME280;7542;49.078;9.194;2023-05-08T03:21:16;98907.03;;;29.52;35.03
14902;BME280;7542;49.078;9.194;2023-05-08T03:22:21;98905.41;;;29.51;34.57
14902;BME280;7542;49.078;9.194;2023-05-08T03:23:28;98900.81;;;29.52;35.03
14902;BME280;7542;49.078;9.194;2023-05-08T03:24:34;98897.06;;;29.53;35.07
14902;BME280;7542;49.078;9.194;2023-05-08T03:25:40;98906.22;;;29.52;34.73
14902;BME280;7542;49.078;9.194;2023-05-08T03:26:44;98900.00;;;29.51;34.85
14902;BME280;7542;49.078;9.194;2023-05-08T03:27:48;98902.72;;;29.51;34.59
14902;BME280;7542;49.078;9.194;2023-05-08T03:28:52;98904.91;;;29.49;34.93
14902;BME280;7542;49.078;9.194;2023-05-08T03:29:55;98900.00;;;29.51;34.84
14902;BME280;7542;49.078;9.194;2023-05-08T03:31:00;98904.09;;;29.49;35.10
14902;BME280;7542;49.078;9.194;2023-05-08T03:32:03;98906.50;;;29.50;34.74
14902;BME280;7542;49.078;9.194;2023-05-08T03:33:07;98901.66;;;29.47;34.92
14902;BME280;7542;49.078;9.194;2023-05-08T03:34:12;98895.19;;;29.48;35.12
14902;BME280;7542;49.078;9.194;2023-05-08T03:35:15;98902.50;;;29.48;35.10
14902;BME280;7542;49.078;9.194;2023-05-08T03:36:18;98901.66;;;29.47;35.17
14902;BME280;7542;49.078;9.194;2023-05-08T03:37:20;98898.69;;;29.49;34.71
14902;BME280;7542;49.078;9.194;2023-05-08T03:38:22;98900.59;;;29.48;34.79
14902;BME280;7542;49.078;9.194;2023-05-08T03:39:24;98898.69;;;29.49;34.99
14902;BME280;7542;49.078;9.194;2023-05-08T03:40:28;98901.66;;;29.47;35.04
14902;BME280;7542;49.078;9.194;2023-05-08T03:41:30;98902.50;;;29.48;34.61
14902;BME280;7542;49.078;9.194;2023-05-08T03:42:33;98898.69;;;29.49;35.02
14902;BME280;7542;49.078;9.194;2023-05-08T03:43:37;98901.41;;;29.49;35.12
14902;BME280;7542;49.078;9.194;2023-05-08T03:44:39;98894.66;;;29.46;34.69
14902;BME280;7542;49.078;9.194;2023-05-08T03:45:40;98903.28;;;29.48;34.72
14902;BME280;7542;49.078;9.194;2023-05-08T03:46:43;98895.44;;;29.47;34.48
14902;BME280;7542;49.078;9.194;2023-05-08T03:47:47;98900.84;;;29.47;34.88
14902;BME280;7542;49.078;9.194;2023-05-08T03:48:52;98898.44;;;29.45;34.62
14902;BME280;7542;49.078;9.194;2023-05-08T03:49:54;98898.44;;;29.45;35.08
14902;BME280;7542;49.078;9.194;2023-05-08T03:51:01;98898.94;;;29.47;34.86
14902;BME280;7542;49.078;9.194;2023-05-08T03:52:03;98906.84;;;29.43;34.62
14902;BME280;7542;49.078;9.194;2023-05-08T03:53:06;98898.72;;;29.43;34.67
14902;BME280;7542;49.078;9.194;2023-05-08T03:54:08;98898.44;;;29.45;34.67
14902;BME280;7542;49.078;9.194;2023-05-08T03:55:10;98895.22;;;29.43;34.86
14902;BME280;7542;49.078;9.194;2023-05-08T03:56:12;98899.81;;;29.42;34.70
14902;BME280;7542;49.078;9.194;2023-05-08T03:57:14;98897.94;;;29.43;34.54
14902;BME280;7542;49.078;9.194;2023-05-08T03:58:31;98896.03;;;29.43;34.94
14902;BME280;7542;49.078;9.194;2023-05-08T04:01:09;98896.84;;;29.44;34.67
14902;BME280;7542;49.078;9.194;2023-05-08T04:02:37;98902.22;;;29.44;34.88
14902;BME280;7542;49.078;9.194;2023-05-08T04:04:29;98900.34;;;29.44;34.75
14902;BME280;7542;49.078;9.194;2023-05-08T04:05:51;98895.78;;;29.40;34.98
14902;BME280;7542;49.078;9.194;2023-05-08T04:07:14;98902.78;;;29.41;34.56
14902;BME280;7542;49.078;9.194;2023-05-08T04:08:31;98894.97;;;29.39;34.93
14902;BME280;7542;49.078;9.194;2023-05-08T04:09:53;98901.19;;;29.40;34.96
14902;BME280;7542;49.078;9.194;2023-05-08T04:11:13;98901.75;;;29.37;34.87
14902;BME280;7542;49.078;9.194;2023-05-08T04:13:41;98908.53;;;29.34;35.22
14902;BME280;7542;49.078;9.194;2023-05-08T04:14:55;98910.16;;;29.35;34.46
14902;BME280;7542;49.078;9.194;2023-05-08T04:16:08;98910.44;;;29.34;34.71
14902;BME280;7542;49.078;9.194;2023-05-08T04:17:26;98909.34;;;29.35;34.89
14902;BME280;7542;49.078;9.194;2023-05-08T04:18:31;98907.44;;;29.35;35.04
14902;BME280;7542;49.078;9.194;2023-05-08T04:19:40;98919.06;;;29.36;34.71
14902;BME280;7542;49.078;9.194;2023-05-08T04:20:48;98913.94;;;29.34;35.09
14902;BME280;7542;49.078;9.194;2023-05-08T04:21:56;98916.94;;;29.33;34.46
14902;BME280;7542;49.078;9.194;2023-05-08T04:23:01;98912.63;;;29.32;34.63
14902;BME280;7542;49.078;9.194;2023-05-08T04:24:07;98913.44;;;29.32;34.78
14902;BME280;7542;49.078;9.194;2023-05-08T04:25:14;98907.47;;;29.30;34.65
14902;BME280;7542;49.078;9.194;2023-05-08T04:26:17;98912.88;;;29.30;34.88
14902;BME280;7542;49.078;9.194;2023-05-08T04:27:20;98917.47;;;29.30;35.12
14902;BME280;7542;49.078;9.194;2023-05-08T04:28:23;98912.38;;;29.28;35.13
14902;BME280;7542;49.078;9.194;2023-05-08T04:29:25;98911.28;;;29.29;34.88
14902;BME280;7542;49.078;9.194;2023-05-08T04:30:28;98912.63;;;29.32;35.08
14902;BME280;7542;49.078;9.194;2023-05-08T04:31:33;98920.19;;;29.30;34.31
14902;BME280;7542;49.078;9.194;2023-05-08T04:32:37;98914.78;;;29.30;34.93
14902;BME280;7542;49.078;9.194;2023-05-08T04:33:43;98913.97;;;29.29;34.68
14902;BME280;7542;49.078;9.194;2023-05-08T04:34:46;98917.75;;;29.28;35.03
14902;BME280;7542;49.078;9.194;2023-05-08T04:35:49;98912.38;;;29.28;34.72
14902;BME280;7542;49.078;9.194;2023-05-08T04:36:51;98916.16;;;29.27;34.66
14902;BME280;7542;49.078;9.194;2023-05-08T04:37:53;98919.66;;;29.28;34.43
14902;BME280;7542;49.078;9.194;2023-05-08T04:38:55;98918.56;;;29.29;34.59
14902;BME280;7542;49.078;9.194;2023-05-08T04:39:58;98914.25;;;29.28;34.61
14902;BME280;7542;49.078;9.194;2023-05-08T04:41:00;98923.16;;;29.28;34.98
14902;BME280;7542;49.078;9.194;2023-05-08T04:42:02;98915.88;;;29.29;34.62
14902;BME280;7542;49.078;9.194;2023-05-08T04:43:05;98923.16;;;29.28;34.48
14902;BME280;7542;49.078;9.194;2023-05-08T04:44:07;98920.75;;;29.27;35.17
14902;BME280;7542;49.078;9.194;2023-05-08T04:45:09;98921.56;;;29.27;34.83
14902;BME280;7542;49.078;9.194;2023-05-08T04:46:12;98932.38;;;29.27;34.71
14902;BME280;7542;49.078;9.194;2023-05-08T04:47:14;98931.56;;;29.27;34.59
14902;BME280;7542;49.078;9.194;2023-05-08T04:48:16;98932.66;;;29.26;34.67
14902;BME280;7542;49.078;9.194;2023-05-08T04:49:19;98935.34;;;29.26;34.65
14902;BME280;7542;49.078;9.194;2023-05-08T04:50:21;98932.66;;;29.26;35.09
14902;BME280;7542;49.078;9.194;2023-05-08T04:51:23;98927.25;;;29.26;34.84
14902;BME280;7542;49.078;9.194;2023-05-08T04:52:25;98930.75;;;29.26;34.79
14902;BME280;7542;49.078;9.194;2023-05-08T04:53:27;98934.25;;;29.27;35.03
14902;BME280;7542;49.078;9.194;2023-05-08T04:54:29;98927.53;;;29.24;34.81
14902;BME280;7542;49.078;9.194;2023-05-08T04:55:31;98930.25;;;29.24;34.63
14902;BME280;7542;49.078;9.194;2023-05-08T04:56:33;98938.06;;;29.26;34.54
14902;BME280;7542;49.078;9.194;2023-05-08T04:57:35;98940.75;;;29.26;34.98
14902;BME280;7542;49.078;9.194;2023-05-08T04:58:36;98935.06;;;29.27;34.96
14902;BME280;7542;49.078;9.194;2023-05-08T04:59:38;98940.75;;;29.26;34.95
14902;BME280;7542;49.078;9.194;2023-05-08T05:00:40;98940.75;;;29.26;34.56
14902;BME280;7542;49.078;9.194;2023-05-08T05:01:45;98935.63;;;29.24;35.13
14902;BME280;7542;49.078;9.194;2023-05-08T05:02:47;98946.16;;;29.26;34.53
14902;BME280;7542;49.078;9.194;2023-05-08T05:03:49;98944.53;;;29.25;34.96
14902;BME280;7542;49.078;9.194;2023-05-08T05:04:51;98949.94;;;29.25;34.96
14902;BME280;7542;49.078;9.194;2023-05-08T05:06:00;98949.94;;;29.25;35.02
14902;BME280;7542;49.078;9.194;2023-05-08T05:07:03;98948.34;;;29.24;34.76
14902;BME280;7542;49.078;9.194;2023-05-08T05:08:05;98951.84;;;29.24;34.47
14902;BME280;7542;49.078;9.194;2023-05-08T05:09:07;98952.13;;;29.23;34.94
14902;BME280;7542;49.078;9.194;2023-05-08T05:10:09;98954.84;;;29.23;35.06
14902;BME280;7542;49.078;9.194;2023-05-08T05:11:11;98955.13;;;29.21;34.70
14902;BME280;7542;49.078;9.194;2023-05-08T05:12:14;98955.91;;;29.22;34.95
14902;BME280;7542;49.078;9.194;2023-05-08T05:13:16;98958.63;;;29.22;34.75
14902;BME280;7542;49.078;9.194;2023-05-08T05:14:18;98952.69;;;29.20;35.07
14902;BME280;7542;49.078;9.194;2023-05-08T05:15:20;98955.38;;;29.20;35.07
14902;BME280;7542;49.078;9.194;2023-05-08T05:16:23;98960.78;;;29.20;34.90
14902;BME280;7542;49.078;9.194;2023-05-08T05:17:25;98959.72;;;29.21;35.09
14902;BME280;7542;49.078;9.194;2023-05-08T05:18:27;98967.00;;;29.20;34.98
14902;BME280;7542;49.078;9.194;2023-05-08T05:19:29;98957.81;;;29.21;34.89
14902;BME280;7542;49.078;9.194;2023-05-08T05:20:31;98958.91;;;29.20;34.66
14902;BME280;7542;49.078;9.194;2023-05-08T05:21:33;98959.72;;;29.21;34.95
14902;BME280;7542;49.078;9.194;2023-05-08T05:22:35;98961.63;;;29.20;35.08
14902;BME280;7542;49.078;9.194;2023-05-08T05:23:37;98953.75;;;29.19;35.14
14902;BME280;7542;49.078;9.194;2023-05-08T05:24:39;98959.97;;;29.19;34.75
14902;BME280;7542;49.078;9.194;2023-05-08T05:25:42;98958.38;;;29.18;34.94
14902;BME280;7542;49.078;9.194;2023-05-08T05:26:44;98966.47;;;29.18;34.93
14902;BME280;7542;49.078;9.194;2023-05-08T05:27:46;98965.66;;;29.17;34.65
14902;BME280;7542;49.078;9.194;2023-05-08T05:28:48;98961.34;;;29.16;34.85
14902;BME280;7542;49.078;9.194;2023-05-08T05:29:50;98968.88;;;29.20;34.72
14902;BME280;7542;49.078;9.194;2023-05-08T05:30:52;98968.06;;;29.19;34.76
14902;BME280;7542;49.078;9.194;2023-05-08T05:31:54;98968.34;;;29.17;34.96
14902;BME280;7542;49.078;9.194;2023-05-08T05:32:57;98972.97;;;29.17;34.95
14902;BME280;7542;49.078;9.194;2023-05-08T05:33:59;98974.84;;;29.16;34.93
14902;BME280;7542;49.078;9.194;2023-05-08T05:35:01;98973.47;;;29.19;34.58
14902;BME280;7542;49.078;9.194;2023-05-08T05:36:04;98967.56;;;29.17;34.56
14902;BME280;7542;49.078;9.194;2023-05-08T05:37:06;98977.84;;;29.15;34.69
14902;BME280;7542;49.078;9.194;2023-05-08T05:38:08;98981.06;;;29.17;34.60
14902;BME280;7542;49.078;9.194;2023-05-08T05:39:10;98978.34;;;29.17;34.63
14902;BME280;7542;49.078;9.194;2023-05-08T05:40:12;98976.75;;;29.16;34.85
14902;BME280;7542;49.078;9.194;2023-05-08T05:41:15;98979.16;;;29.17;34.67
14902;BME280;7542;49.078;9.194;2023-05-08T05:42:17;98982.94;;;29.16;34.83
14902;BME280;7542;49.078;9.194;2023-05-08T05:43:18;98978.34;;;29.17;35.20
14902;BME280;7542;49.078;9.194;2023-05-08T05:44:21;98982.94;;;29.16;35.05
14902;BME280;7542;49.078;9.194;2023-05-08T05:45:23;98978.63;;;29.15;34.61
14902;BME280;7542;49.078;9.194;2023-05-08T05:46:25;98981.34;;;29.15;35.03
14902;BME280;7542;49.078;9.194;2023-05-08T05:47:33;98981.34;;;29.15;34.65
14902;BME280;7542;49.078;9.194;2023-05-08T05:48:35;98976.22;;;29.14;34.67
14902;BME280;7542;49.078;9.194;2023-05-08T05:49:37;98977.03;;;29.14;35.03
14902;BME280;7542;49.078;9.194;2023-05-08T05:50:40;98979.72;;;29.14;34.66
14902;BME280;7542;49.078;9.194;2023-05-08T05:51:42;98979.72;;;29.14;35.08
14902;BME280;7542;49.078;9.194;2023-05-08T05:52:44;98982.44;;;29.14;35.18
14902;BME280;7542;49.078;9.194;2023-05-08T05:53:46;98984.34;;;29.14;34.71
14902;BME280;7542;49.078;9.194;2023-05-08T05:54:48;98980.53;;;29.15;34.67
14902;BME280;7542;49.078;9.194;2023-05-08T05:55:50;98982.44;;;29.14;34.71
14902;BME280;7542;49.078;9.194;2023-05-08T05:56:53;98986.22;;;29.13;34.62
14902;BME280;7542;49.078;9.194;2023-05-08T05:57:55;98981.63;;;29.14;34.69
14902;BME280;7542;49.078;9.194;2023-05-08T05:58:57;98975.72;;;29.12;34.68
14902;BME280;7542;49.078;9.194;2023-05-08T05:59:59;98985.41;;;29.13;35.04
14902;BME280;7542;49.078;9.194;2023-05-08T06:01:02;98983.25;;;29.15;34.72
14902;BME280;7542;49.078;9.194;2023-05-08T06:02:04;98985.41;;;29.13;34.96
14902;BME280;7542;49.078;9.194;2023-05-08T06:03:08;98981.63;;;29.14;34.79
14902;BME280;7542;49.078;9.194;2023-05-08T06:04:12;98980.81;;;29.13;35.20
14902;BME280;7542;49.078;9.194;2023-05-08T06:05:14;98983.81;;;29.12;35.00
14902;BME280;7542;49.078;9.194;2023-05-08T06:06:16;98980.81;;;29.13;34.94
14902;BME280;7542;49.078;9.194;2023-05-08T06:07:18;98981.09;;;29.12;35.00
14902;BME280;7542;49.078;9.194;2023-05-08T06:08:22;98983.81;;;29.12;35.16
14902;BME280;7542;49.078;9.194;2023-05-08T06:09:25;98994.91;;;29.10;35.15
14902;BME280;7542;49.078;9.194;2023-05-08T06:10:27;98984.63;;;29.12;34.81
14902;BME280;7542;49.078;9.194;2023-05-08T06:11:29;98980.31;;;29.11;35.14
14902;BME280;7542;49.078;9.194;2023-05-08T06:12:32;98988.41;;;29.11;35.01
14902;BME280;7542;49.078;9.194;2023-05-08T06:13:34;98989.22;;;29.12;35.19
14902;BME280;7542;49.078;9.194;2023-05-08T06:14:36;98991.09;;;29.11;35.06
14902;BME280;7542;49.078;9.194;2023-05-08T06:15:38;98985.94;;;29.15;35.06
14902;BME280;7542;49.078;9.194;2023-05-08T06:16:40;98987.59;;;29.11;34.89
14902;BME280;7542;49.078;9.194;2023-05-08T06:17:42;98993.81;;;29.11;34.81